^^
Datos históricos de la estación: Murcia-Puente Tocinos
Diario Informe para Octubre 17, 2021 Unidades:  Ambas    Ingés   Métrico
Diario Semanal Mensual Anual
  Máxima: Mínima: Promedio:
Temperatura: 80.1 °F /  26.7 °C 65.8 °F /  18.8 °C 70.7 °F /  21.5 °C
Punto de rocio: 64.4 °F /  18 °C 58.1 °F /  14.5 °C 62.1 °F /  16.7 °C
Humedad: 89% 49.3% 75%
Velocidad viento: 7.6mph /  12.2km/h - 3.4mph /  5.5km/h
Racha viento: 13mph /  20.9km/h - -
Viento- - SSE
Presión: 30.1 in /  1019.9 hPa 30 in /  1015.3 hPa -
Precipitación: 0 in /  0.0 mm    
 
 
Tabla de datos para Octubre 17, 2021
Hora Temperatura Punto de rocio Presión Viento Velocidad viento Racha viento Humedad Intensidad lluvia(por hora) Nubes
00:04 69.1 °F /  20.6 °C 61.2 °F /  16.2 °C 30in /  1015.9hPa NNE 5.2mph /  8.4km/h 7.4mph /  11.9km/h 76.1% 0in /  0.0mm
00:09 69.1 °F /  20.6 °C 61.2 °F /  16.2 °C 30in /  1016.0hPa NNE 4.9mph /  7.9km/h 6.9mph /  11.1km/h 76% 0in /  0.0mm
00:14 69.1 °F /  20.6 °C 61.2 °F /  16.2 °C 30in /  1016.0hPa NE 4.3mph /  6.9km/h 6.9mph /  11.1km/h 76% 0in /  0.0mm
00:19 69.1 °F /  20.6 °C 61.5 °F /  16.4 °C 30in /  1016.0hPa NNE 4.3mph /  6.9km/h 5.9mph /  9.5km/h 76.7% 0in /  0.0mm
00:24 69.1 °F /  20.6 °C 61.5 °F /  16.4 °C 30in /  1016.0hPa NE 4.3mph /  6.9km/h 6.9mph /  11.1km/h 77% 0in /  0.0mm
00:29 69.1 °F /  20.6 °C 61.5 °F /  16.4 °C 30in /  1016.0hPa NE 4.2mph /  6.7km/h 6.2mph /  10km/h 77% 0in /  0.0mm
00:34 68.9 °F /  20.5 °C 61.5 °F /  16.4 °C 30in /  1016.0hPa North 4mph /  6.4km/h 5.9mph /  9.5km/h 77.2% 0in /  0.0mm
00:39 68.9 °F /  20.5 °C 61.9 °F /  16.6 °C 30in /  1016.3hPa ONO 3.7mph /  5.9km/h 4.6mph /  7.4km/h 78% 0in /  0.0mm
00:44 68.9 °F /  20.5 °C 61.9 °F /  16.6 °C 30in /  1016.3hPa North 3.1mph /  5km/h 4.6mph /  7.4km/h 78% 0in /  0.0mm
00:49 68.7 °F /  20.4 °C 61.7 °F /  16.5 °C 30in /  1016.3hPa NNO 2.8mph /  4.5km/h 3.5mph /  5.6km/h 78% 0in /  0.0mm
00:54 68.7 °F /  20.4 °C 61.5 °F /  16.4 °C 30in /  1016.3hPa NNO 2.4mph /  3.9km/h 3.5mph /  5.6km/h 78% 0in /  0.0mm
00:59 68.7 °F /  20.4 °C 61.5 °F /  16.4 °C 30in /  1016.3hPa NNO 2.2mph /  3.6km/h 4.6mph /  7.4km/h 78% 0in /  0.0mm
01:04 68.7 °F /  20.4 °C 61.5 °F /  16.4 °C 30in /  1016.3hPa NNO 2mph /  3.2km/h 2.9mph /  4.7km/h 78% 0in /  0.0mm
01:09 68.7 °F /  20.4 °C 61.7 °F /  16.5 °C 30in /  1016.3hPa NNO 1.9mph /  3.1km/h 2.9mph /  4.7km/h 78.4% 0in /  0.0mm
01:14 68.5 °F /  20.3 °C 61.9 °F /  16.6 °C 30in /  1016.2hPa NNO 1.8mph /  2.9km/h 3.1mph /  5km/h 79% 0in /  0.0mm
01:19 68.5 °F /  20.3 °C 61.9 °F /  16.6 °C 30in /  1016.2hPa NNO 1.8mph /  2.9km/h 3.5mph /  5.6km/h 79% 0in /  0.0mm
01:24 68.5 °F /  20.3 °C 61.9 °F /  16.6 °C 30in /  1016.2hPa NNO 1.8mph /  2.9km/h 2.3mph /  3.7km/h 79% 0in /  0.0mm
01:29 68.5 °F /  20.3 °C 61.9 °F /  16.6 °C 30in /  1016.2hPa NNE 1.6mph /  2.6km/h 3.6mph /  5.8km/h 79% 0in /  0.0mm
01:34 68.5 °F /  20.3 °C 61.9 °F /  16.6 °C 30in /  1016.2hPa NE 1.4mph /  2.3km/h 3.5mph /  5.6km/h 79% 0in /  0.0mm
01:39 68.5 °F /  20.3 °C 61.9 °F /  16.6 °C 30in /  1016.2hPa NE 1.6mph /  2.6km/h 5.4mph /  8.7km/h 79.4% 0in /  0.0mm
01:44 68.4 °F /  20.2 °C 61.9 °F /  16.6 °C 30in /  1015.7hPa ENE 2mph /  3.2km/h 6.9mph /  11.1km/h 80% 0in /  0.0mm
01:49 68.4 °F /  20.2 °C 62.1 °F /  16.7 °C 30in /  1015.7hPa SSO 2.8mph /  4.5km/h 6.9mph /  11.1km/h 80.3% 0in /  0.0mm
01:54 68.4 °F /  20.2 °C 62.4 °F /  16.9 °C 30in /  1016.0hPa Oeste 4mph /  6.4km/h 4.6mph /  7.4km/h 81.1% 0in /  0.0mm
01:59 68.4 °F /  20.2 °C 62.6 °F /  17 °C 30in /  1016.0hPa Oeste 3.5mph /  5.7km/h 4.7mph /  7.6km/h 82% 0in /  0.0mm
02:04 68.2 °F /  20.1 °C 62.4 °F /  16.9 °C 30in /  1016.0hPa ONO 2.9mph /  4.7km/h 4.7mph /  7.6km/h 82% 0in /  0.0mm
02:09 68 °F /  20 °C 62.4 °F /  16.9 °C 30in /  1016.0hPa ONO 3.2mph /  5.1km/h 5.2mph /  8.4km/h 82.5% 0in /  0.0mm
02:14 67.8 °F /  19.9 °C 62.4 °F /  16.9 °C 30in /  1015.9hPa NNO 3.6mph /  5.8km/h 4.6mph /  7.4km/h 83% 0in /  0.0mm
02:19 67.8 °F /  19.9 °C 62.8 °F /  17.1 °C 30in /  1015.9hPa North 3.3mph /  5.3km/h 6.9mph /  11.1km/h 83.8% 0in /  0.0mm
02:24 67.8 °F /  19.9 °C 62.8 °F /  17.1 °C 30in /  1015.9hPa NE 2.9mph /  4.7km/h 6.9mph /  11.1km/h 84% 0in /  0.0mm
02:29 67.8 °F /  19.9 °C 63 °F /  17.2 °C 30in /  1015.5hPa NE 3.4mph /  5.5km/h 6.2mph /  10km/h 84.9% 0in /  0.0mm
02:34 67.6 °F /  19.8 °C 63 °F /  17.2 °C 30in /  1015.5hPa NNE 4.3mph /  6.9km/h 8.1mph /  13km/h 85% 0in /  0.0mm
02:39 67.6 °F /  19.8 °C 63 °F /  17.2 °C 30in /  1015.5hPa NNE 4.5mph /  7.2km/h 8.1mph /  13km/h 85.1% 0in /  0.0mm
02:44 67.5 °F /  19.7 °C 63.1 °F /  17.3 °C 30in /  1015.4hPa North 4.7mph /  7.6km/h 6.9mph /  11.1km/h 86% 0in /  0.0mm
02:49 67.5 °F /  19.7 °C 63.3 °F /  17.4 °C 30in /  1015.4hPa NO 4.2mph /  6.8km/h 4.7mph /  7.6km/h 86.4% 0in /  0.0mm
02:54 67.5 °F /  19.7 °C 63.5 °F /  17.5 °C 30in /  1015.5hPa NO 3.6mph /  5.8km/h 3.5mph /  5.6km/h 87% 0in /  0.0mm
02:59 67.6 °F /  19.8 °C 63.7 °F /  17.6 °C 30in /  1015.5hPa NNO 2.9mph /  4.7km/h 4.6mph /  7.4km/h 87% 0in /  0.0mm
03:04 67.6 °F /  19.8 °C 63.7 °F /  17.6 °C 30in /  1015.5hPa ONO 2mph /  3.2km/h 4.7mph /  7.6km/h 87% 0in /  0.0mm
03:09 67.6 °F /  19.8 °C 63.7 °F /  17.6 °C 30in /  1016.0hPa SO 2.4mph /  3.8km/h 5.8mph /  9.3km/h 87% 0in /  0.0mm
03:14 67.6 °F /  19.8 °C 63.7 °F /  17.6 °C 30in /  1016.0hPa SSO 2.9mph /  4.7km/h 5.2mph /  8.4km/h 87% 0in /  0.0mm
03:19 67.8 °F /  19.9 °C 64 °F /  17.8 °C 30in /  1016.0hPa SO 3mph /  4.8km/h 4.7mph /  7.6km/h 87.6% 0in /  0.0mm
03:24 67.8 °F /  19.9 °C 63.9 °F /  17.7 °C 30in /  1016.0hPa SSO 3.1mph /  5km/h 4.6mph /  7.4km/h 87.4% 0in /  0.0mm
03:29 67.8 °F /  19.9 °C 63.9 °F /  17.7 °C 30in /  1015.9hPa Sur 3mph /  4.9km/h 4.6mph /  7.4km/h 87% 0in /  0.0mm
03:34 68 °F /  20 °C 64 °F /  17.8 °C 30in /  1015.9hPa SE 2.9mph /  4.7km/h 5.4mph /  8.7km/h 87% 0in /  0.0mm
03:39 68 °F /  20 °C 63.9 °F /  17.7 °C 30in /  1015.9hPa SE 2.9mph /  4.7km/h 6.9mph /  11.1km/h 86.6% 0in /  0.0mm
03:44 67.6 °F /  19.8 °C 63.1 °F /  17.3 °C 30in /  1015.9hPa SSE 2.9mph /  4.7km/h 5.9mph /  9.5km/h 85.3% 0in /  0.0mm
03:49 67.5 °F /  19.7 °C 62.4 °F /  16.9 °C 30in /  1015.9hPa Sur 3mph /  4.8km/h 4.6mph /  7.4km/h 84.3% 0in /  0.0mm
03:54 67.3 °F /  19.6 °C 62.2 °F /  16.8 °C 30in /  1015.9hPa Sur 3.1mph /  5km/h 4.6mph /  7.4km/h 84% 0in /  0.0mm
03:59 67.3 °F /  19.6 °C 62.1 °F /  16.7 °C 30in /  1015.8hPa SSE 3.1mph /  5km/h 5.8mph /  9.3km/h 83.5% 0in /  0.0mm
04:04 67.3 °F /  19.6 °C 61.7 °F /  16.5 °C 30in /  1015.8hPa Sur 3.1mph /  5km/h 5.9mph /  9.5km/h 82.3% 0in /  0.0mm
04:09 67.3 °F /  19.6 °C 61.5 °F /  16.4 °C 30in /  1015.8hPa SSE 3.6mph /  5.8km/h 7.4mph /  11.9km/h 82% 0in /  0.0mm
04:14 67.3 °F /  19.6 °C 61.3 °F /  16.3 °C 30in /  1015.7hPa Sur 4.3mph /  6.9km/h 5.8mph /  9.3km/h 81.1% 0in /  0.0mm
04:19 67.5 °F /  19.7 °C 61.3 °F /  16.3 °C 30in /  1015.7hPa SSO 3.9mph /  6.2km/h 4.6mph /  7.4km/h 81% 0in /  0.0mm
04:24 67.5 °F /  19.7 °C 61.7 °F /  16.5 °C 30in /  1015.7hPa SSO 3.1mph /  5km/h 6.2mph /  10km/h 81.4% 0in /  0.0mm
04:29 67.6 °F /  19.8 °C 61.9 °F /  16.6 °C 30in /  1015.7hPa SSO 3.5mph /  5.6km/h 5.2mph /  8.4km/h 82% 0in /  0.0mm
04:34 67.8 °F /  19.9 °C 62.1 °F /  16.7 °C 30in /  1015.7hPa SSO 4mph /  6.4km/h 6.2mph /  10km/h 82% 0in /  0.0mm
04:39 67.8 °F /  19.9 °C 62.1 °F /  16.7 °C 30in /  1015.7hPa SO 3.9mph /  6.2km/h 5.8mph /  9.3km/h 82% 0in /  0.0mm
04:44 68 °F /  20 °C 62.4 °F /  16.9 °C 30in /  1015.7hPa Oeste 3.6mph /  5.8km/h 4.6mph /  7.4km/h 82% 0in /  0.0mm
04:49 68.2 °F /  20.1 °C 62.4 °F /  16.9 °C 30in /  1015.7hPa ONO 3.1mph /  5km/h 4.6mph /  7.4km/h 82% 0in /  0.0mm
04:54 68 °F /  20 °C 62.4 °F /  16.9 °C 30in /  1015.8hPa Oeste 2.4mph /  3.9km/h 3.6mph /  5.8km/h 82% 0in /  0.0mm
04:59 68 °F /  20 °C 62.4 °F /  16.9 °C 30in /  1015.8hPa ONO 2.4mph /  3.9km/h 3.6mph /  5.8km/h 82.4% 0in /  0.0mm
05:04 68 °F /  20 °C 62.6 °F /  17 °C 30in /  1015.8hPa ONO 2.4mph /  3.9km/h 3.6mph /  5.8km/h 83% 0in /  0.0mm
05:09 67.8 °F /  19.9 °C 62.4 °F /  16.9 °C 30in /  1015.8hPa ONO 2.2mph /  3.6km/h 3.6mph /  5.8km/h 83% 0in /  0.0mm
05:14 67.8 °F /  19.9 °C 62.4 °F /  16.9 °C 30in /  1015.8hPa ONO 2mph /  3.2km/h 3.5mph /  5.6km/h 83% 0in /  0.0mm
05:19 67.8 °F /  19.9 °C 62.4 °F /  16.9 °C 30in /  1015.8hPa ONO 1.7mph /  2.8km/h 2.3mph /  3.7km/h 83% 0in /  0.0mm
05:24 67.8 °F /  19.9 °C 62.4 °F /  16.9 °C 30in /  1015.8hPa ONO 1.4mph /  2.3km/h   83% 0in /  0.0mm
05:29 67.6 °F /  19.8 °C 62.4 °F /  16.9 °C 30in /  1015.6hPa ONO 0.9mph /  1.4km/h 1.4mph /  2.3km/h 83% 0in /  0.0mm
05:34 67.6 °F /  19.8 °C 62.4 °F /  16.9 °C 30in /  1015.6hPa Calm   4.3mph /  6.9km/h 83.6% 0in /  0.0mm
05:39 67.6 °F /  19.8 °C 62.6 °F /  17 °C 30in /  1015.9hPa SO 0.8mph /  1.3km/h 4.7mph /  7.6km/h 84% 0in /  0.0mm
05:44 67.6 °F /  19.8 °C 62.6 °F /  17 °C 30in /  1015.9hPa SO 2mph /  3.2km/h 4.6mph /  7.4km/h 84% 0in /  0.0mm
05:49 67.6 °F /  19.8 °C 62.6 °F /  17 °C 30in /  1015.9hPa SO 2.2mph /  3.5km/h 4.6mph /  7.4km/h 84% 0in /  0.0mm
05:54 67.8 °F /  19.9 °C 63 °F /  17.2 °C 30in /  1016.1hPa OSO 2.4mph /  3.9km/h 4.6mph /  7.4km/h 84.6% 0in /  0.0mm
05:59 67.8 °F /  19.9 °C 63.1 °F /  17.3 °C 30in /  1016.1hPa Oeste 2.4mph /  3.9km/h 3.6mph /  5.8km/h 85% 0in /  0.0mm
06:04 67.8 °F /  19.9 °C 63.1 °F /  17.3 °C 30in /  1016.1hPa Oeste 2.4mph /  3.9km/h 3.6mph /  5.8km/h 85% 0in /  0.0mm
06:09 67.8 °F /  19.9 °C 63.1 °F /  17.3 °C 30in /  1016.1hPa Oeste 2.2mph /  3.6km/h 4.6mph /  7.4km/h 85.3% 0in /  0.0mm
06:14 67.8 °F /  19.9 °C 63.5 °F /  17.5 °C 30in /  1015.9hPa Oeste 2mph /  3.2km/h 2.3mph /  3.7km/h 86% 0in /  0.0mm
06:19 67.8 °F /  19.9 °C 63.5 °F /  17.5 °C 30in /  1015.9hPa NO 1.7mph /  2.8km/h 4.6mph /  7.4km/h 86% 0in /  0.0mm
06:24 67.6 °F /  19.8 °C 63.3 °F /  17.4 °C 30in /  1015.9hPa North 1.4mph /  2.3km/h 4mph /  6.4km/h 86% 0in /  0.0mm
06:29 67.5 °F /  19.7 °C 63 °F /  17.2 °C 30in /  1015.8hPa ESE 2mph /  3.2km/h 4.6mph /  7.4km/h 85.3% 0in /  0.0mm
06:34 67.5 °F /  19.7 °C 63 °F /  17.2 °C 30in /  1015.8hPa ESE 2.9mph /  4.7km/h 6.2mph /  10km/h 86% 0in /  0.0mm
06:39 67.1 °F /  19.5 °C 62.8 °F /  17.1 °C 30in /  1015.8hPa SSE 3.4mph /  5.4km/h 5.9mph /  9.5km/h 86% 0in /  0.0mm
06:44 66.9 °F /  19.4 °C 62.8 °F /  17.1 °C 30in /  1015.8hPa Sur 4mph /  6.4km/h 5.8mph /  9.3km/h 86.7% 0in /  0.0mm
06:49 66.7 °F /  19.3 °C 62.8 °F /  17.1 °C 30in /  1015.8hPa Sur 4mph /  6.4km/h 6.2mph /  10km/h 87% 0in /  0.0mm
06:54 66.7 °F /  19.3 °C 62.8 °F /  17.1 °C 30in /  1015.9hPa Sur 4mph /  6.4km/h 6.9mph /  11.1km/h 87% 0in /  0.0mm
06:59 66.7 °F /  19.3 °C 62.8 °F /  17.1 °C 30in /  1015.9hPa Sur 4.2mph /  6.7km/h 6.2mph /  10km/h 87% 0in /  0.0mm
07:04 66.7 °F /  19.3 °C 62.8 °F /  17.1 °C 30in /  1015.9hPa SSO 4.3mph /  6.9km/h 5.9mph /  9.5km/h 87% 0in /  0.0mm
07:09 66.9 °F /  19.4 °C 63 °F /  17.2 °C 30in /  1016.1hPa SSO 4.3mph /  6.9km/h 6.9mph /  11.1km/h 87% 0in /  0.0mm
07:14 66.9 °F /  19.4 °C 63 °F /  17.2 °C 30in /  1016.1hPa SO 4.3mph /  6.9km/h 5.8mph /  9.3km/h 87% 0in /  0.0mm
07:19 67.1 °F /  19.5 °C 63 °F /  17.2 °C 30in /  1016.1hPa SO 3.9mph /  6.2km/h 4.6mph /  7.4km/h 87% 0in /  0.0mm
07:24 67.1 °F /  19.5 °C 63.1 °F /  17.3 °C 30in /  1016.1hPa SO 3.1mph /  5km/h 4.6mph /  7.4km/h 87% 0in /  0.0mm
07:29 67.3 °F /  19.6 °C 63.3 °F /  17.4 °C 30in /  1016.0hPa SSO 2.8mph /  4.5km/h 4.6mph /  7.4km/h 87% 0in /  0.0mm
07:34 67.3 °F /  19.6 °C 63.3 °F /  17.4 °C 30in /  1016.0hPa SSO 2.4mph /  3.9km/h 3.6mph /  5.8km/h 87% 0in /  0.0mm
07:39 67.3 °F /  19.6 °C 63.3 °F /  17.4 °C 30in /  1016.1hPa SSO 2.2mph /  3.6km/h 2.9mph /  4.7km/h 87% 0in /  0.0mm
07:44 67.3 °F /  19.6 °C 63.3 °F /  17.4 °C 30in /  1016.1hPa SSO 2mph /  3.2km/h 2.9mph /  4.7km/h 87% 0in /  0.0mm
07:49 67.3 °F /  19.6 °C 63.3 °F /  17.4 °C 30in /  1016.1hPa SSO 1.9mph /  3.1km/h 2.3mph /  3.7km/h 87% 0in /  0.0mm
07:54 67.3 °F /  19.6 °C 63.3 °F /  17.4 °C 30in /  1016.1hPa SSO 1.8mph /  2.9km/h 2.4mph /  3.9km/h 87% 0in /  0.0mm
07:59 67.3 °F /  19.6 °C 63.3 °F /  17.4 °C 30in /  1015.9hPa SSO 1.6mph /  2.6km/h 2.3mph /  3.7km/h 87% 0in /  0.0mm
08:04 67.3 °F /  19.6 °C 63.3 °F /  17.4 °C 30in /  1015.9hPa SSO 1.4mph /  2.3km/h 2.4mph /  3.9km/h 87% 0in /  0.0mm
08:09 67.3 °F /  19.6 °C 63.3 °F /  17.4 °C 30in /  1015.9hPa SSO 1.4mph /  2.3km/h 2.4mph /  3.9km/h 87% 0in /  0.0mm
08:14 67.3 °F /  19.6 °C 63.3 °F /  17.4 °C 30in /  1015.8hPa SSO 1.4mph /  2.3km/h 3.5mph /  5.6km/h 87% 0in /  0.0mm
08:19 67.3 °F /  19.6 °C 63.3 °F /  17.4 °C 30in /  1015.8hPa OSO 1.6mph /  2.6km/h 4.6mph /  7.4km/h 87% 0in /  0.0mm
08:24 66.9 °F /  19.4 °C 63.1 °F /  17.3 °C 30in /  1015.9hPa Oeste 2mph /  3.2km/h 4.6mph /  7.4km/h 87.7% 0in /  0.0mm
08:29 66.9 °F /  19.4 °C 63.1 °F /  17.3 °C 30in /  1015.9hPa Oeste 2.2mph /  3.5km/h 3.6mph /  5.8km/h 88% 0in /  0.0mm
08:34 66.9 °F /  19.4 °C 63.5 °F /  17.5 °C 30in /  1015.9hPa OSO 2.4mph /  3.9km/h 4.7mph /  7.6km/h 88.7% 0in /  0.0mm
08:39 66.9 °F /  19.4 °C 63.5 °F /  17.5 °C 30in /  1016.0hPa OSO 2.4mph /  3.9km/h 5.4mph /  8.7km/h 89% 0in /  0.0mm
08:44 66.9 °F /  19.4 °C 63.7 °F /  17.6 °C 30in /  1016.0hPa OSO 2.4mph /  3.9km/h 5.8mph /  9.3km/h 89% 0in /  0.0mm
08:49 66.9 °F /  19.4 °C 63.5 °F /  17.5 °C 30in /  1016.0hPa OSO 2.6mph /  4.2km/h 4.6mph /  7.4km/h 89% 0in /  0.0mm
08:54 66.7 °F /  19.3 °C 63.3 °F /  17.4 °C 30in /  1016.1hPa OSO 2.9mph /  4.7km/h 4.6mph /  7.4km/h 89% 0in /  0.0mm
08:59 66.7 °F /  19.3 °C 63.5 °F /  17.5 °C 30in /  1016.1hPa SO 2.5mph /  4.1km/h 4.6mph /  7.4km/h 89% 0in /  0.0mm
09:04 66.7 °F /  19.3 °C 63.5 °F /  17.5 °C 30in /  1016.1hPa Sur 2mph /  3.2km/h 4.3mph /  6.9km/h 89% 0in /  0.0mm
09:09 66.9 °F /  19.4 °C 63.7 °F /  17.6 °C 30in /  1016.1hPa SSE 2.4mph /  3.8km/h 5.4mph /  8.7km/h 89% 0in /  0.0mm
09:14 66.9 °F /  19.4 °C 63.7 °F /  17.6 °C 30in /  1016.1hPa SE 2.9mph /  4.7km/h 5.8mph /  9.3km/h 89% 0in /  0.0mm
09:19 66.9 °F /  19.4 °C 63.7 °F /  17.6 °C 30in /  1016.1hPa SE 3mph /  4.8km/h 4.6mph /  7.4km/h 89% 0in /  0.0mm
09:24 66.9 °F /  19.4 °C 63.7 °F /  17.6 °C 30in /  1016.4hPa Sur 3.1mph /  5km/h 5.2mph /  8.4km/h 89% 0in /  0.0mm
09:29 66.9 °F /  19.4 °C 63.7 °F /  17.6 °C 30in /  1016.4hPa SSO 3.3mph /  5.3km/h 5.2mph /  8.4km/h 89% 0in /  0.0mm
09:34 66.9 °F /  19.4 °C 63.5 °F /  17.5 °C 30in /  1016.4hPa SO 3.6mph /  5.8km/h 4.7mph /  7.6km/h 89% 0in /  0.0mm
09:39 66.9 °F /  19.4 °C 63.7 °F /  17.6 °C 30in /  1016.4hPa SO 3.3mph /  5.3km/h 4.6mph /  7.4km/h 89% 0in /  0.0mm
09:44 66.9 °F /  19.4 °C 63.7 °F /  17.6 °C 30in /  1016.3hPa OSO 2.9mph /  4.7km/h 2.9mph /  4.7km/h 89% 0in /  0.0mm
09:49 67.1 °F /  19.5 °C 63.7 °F /  17.6 °C 30in /  1016.3hPa OSO 2.4mph /  3.9km/h 4mph /  6.4km/h 89% 0in /  0.0mm
09:54 67.3 °F /  19.6 °C 63.9 °F /  17.7 °C 30in /  1016.5hPa OSO 1.8mph /  2.9km/h 4.6mph /  7.4km/h 89% 0in /  0.0mm
09:59 67.3 °F /  19.6 °C 63.7 °F /  17.6 °C 30in /  1016.5hPa Oeste 2.1mph /  3.3km/h 4.6mph /  7.4km/h 88.2% 0in /  0.0mm
10:04 67.5 °F /  19.7 °C 63.9 °F /  17.7 °C 30in /  1016.5hPa ONO 2.4mph /  3.9km/h 3.5mph /  5.6km/h 88% 0in /  0.0mm
10:09 67.5 °F /  19.7 °C 63.9 °F /  17.7 °C 30in /  1016.6hPa ONO 2.2mph /  3.5km/h 3.6mph /  5.8km/h 88% 0in /  0.0mm
10:14 67.6 °F /  19.8 °C 63.9 °F /  17.7 °C 30in /  1016.6hPa Oeste 1.8mph /  2.9km/h 4mph /  6.4km/h 87.7% 0in /  0.0mm
10:19 67.6 °F /  19.8 °C 63.7 °F /  17.6 °C 30in /  1016.6hPa Oeste 2.1mph /  3.3km/h 5.8mph /  9.3km/h 86.9% 0in /  0.0mm
10:24 67.8 °F /  19.9 °C 63.5 °F /  17.5 °C 30in /  1016.6hPa ONO 2.4mph /  3.9km/h 5.2mph /  8.4km/h 86% 0in /  0.0mm
10:29 67.8 °F /  19.9 °C 63.5 °F /  17.5 °C 30in /  1016.6hPa Oeste 2.6mph /  4.2km/h 5.2mph /  8.4km/h 86% 0in /  0.0mm
10:34 68 °F /  20 °C 63.5 °F /  17.5 °C 30in /  1016.6hPa OSO 2.9mph /  4.7km/h 6.9mph /  11.1km/h 85.2% 0in /  0.0mm
10:39 68.2 °F /  20.1 °C 63.5 °F /  17.5 °C 30in /  1016.8hPa Oeste 3.5mph /  5.6km/h 6.9mph /  11.1km/h 85% 0in /  0.0mm
10:44 68.4 °F /  20.2 °C 63.7 °F /  17.6 °C 30in /  1016.8hPa SO 4.3mph /  6.9km/h 7.4mph /  11.9km/h 85% 0in /  0.0mm
10:49 68.4 °F /  20.2 °C 63.5 °F /  17.5 °C 30in /  1016.8hPa OSO 3.8mph /  6.1km/h 6.9mph /  11.1km/h 84.2% 0in /  0.0mm
10:54 68.5 °F /  20.3 °C 63.5 °F /  17.5 °C 30in /  1016.8hPa OSO 3.1mph /  5km/h 5.9mph /  9.5km/h 84% 0in /  0.0mm
10:59 68.7 °F /  20.4 °C 63.5 °F /  17.5 °C 30in /  1016.8hPa OSO 3.4mph /  5.4km/h 6.9mph /  11.1km/h 83.4% 0in /  0.0mm
11:04 69.1 °F /  20.6 °C 63.7 °F /  17.6 °C 30in /  1016.8hPa SO 3.6mph /  5.8km/h 6.9mph /  11.1km/h 83% 0in /  0.0mm
11:09 69.1 °F /  20.6 °C 63.7 °F /  17.6 °C 30in /  1017.0hPa OSO 3.9mph /  6.3km/h 5.8mph /  9.3km/h 83% 0in /  0.0mm
11:14 69.3 °F /  20.7 °C 63.7 °F /  17.6 °C 30in /  1017.0hPa Oeste 4.3mph /  6.9km/h 4.7mph /  7.6km/h 82.4% 0in /  0.0mm
11:19 69.6 °F /  20.9 °C 64 °F /  17.8 °C 30in /  1017.0hPa ONO 3.5mph /  5.7km/h 3.6mph /  5.8km/h 82% 0in /  0.0mm
11:24 70.2 °F /  21.2 °C 64.2 °F /  17.9 °C 30in /  1017.1hPa ONO 2.4mph /  3.9km/h 4.7mph /  7.6km/h 81.3% 0in /  0.0mm
11:29 70.3 °F /  21.3 °C 64 °F /  17.8 °C 30in /  1017.1hPa NO 2.4mph /  3.9km/h 4.6mph /  7.4km/h 80.2% 0in /  0.0mm
11:34 70.9 °F /  21.6 °C 64.2 °F /  17.9 °C 30in /  1017.1hPa NNE 2.4mph /  3.9km/h 4.6mph /  7.4km/h 79.6% 0in /  0.0mm
11:39 71.4 °F /  21.9 °C 64.4 °F /  18 °C 30in /  1017.1hPa NNE 2.2mph /  3.6km/h 3.5mph /  5.6km/h 78.6% 0in /  0.0mm
11:44 71.8 °F /  22.1 °C 64.4 °F /  18 °C 30in /  1016.9hPa North 2mph /  3.2km/h 4.6mph /  7.4km/h 77.6% 0in /  0.0mm
11:49 72 °F /  22.2 °C 64.2 °F /  17.9 °C 30in /  1016.9hPa NNO 2mph /  3.2km/h 2.9mph /  4.7km/h 77% 0in /  0.0mm
11:54 72 °F /  22.2 °C 64.4 °F /  18 °C 30in /  1017.0hPa NNO 2mph /  3.2km/h 3.6mph /  5.8km/h 77% 0in /  0.0mm
11:59 72 °F /  22.2 °C 64 °F /  17.8 °C 30in /  1017.0hPa NNE 1.9mph /  3.1km/h 4.7mph /  7.6km/h 76.1% 0in /  0.0mm
12:04 72 °F /  22.2 °C 64 °F /  17.8 °C 30in /  1017.0hPa ESE 1.8mph /  2.9km/h 5.4mph /  8.7km/h 76% 0in /  0.0mm
12:09 72 °F /  22.2 °C 64 °F /  17.8 °C 30in /  1017.1hPa Este 2.3mph /  3.7km/h 5.8mph /  9.3km/h 76% 0in /  0.0mm
12:14 72 °F /  22.2 °C 64.4 °F /  18 °C 30in /  1017.1hPa North 3.1mph /  5km/h 2.3mph /  3.7km/h 76.9% 0in /  0.0mm
12:19 72.1 °F /  22.3 °C 64.2 °F /  17.9 °C 30in /  1017.1hPa ESE 2.5mph /  4.1km/h 4.6mph /  7.4km/h 76.1% 0in /  0.0mm
12:24 72.1 °F /  22.3 °C 64.2 °F /  17.9 °C 30in /  1017.1hPa Sur 1.8mph /  2.9km/h 4.6mph /  7.4km/h 76% 0in /  0.0mm
12:29 72.1 °F /  22.3 °C 64.2 °F /  17.9 °C 30in /  1017.0hPa Sur 1.9mph /  3km/h 2.4mph /  3.9km/h 76% 0in /  0.0mm
12:34 72.3 °F /  22.4 °C 64.4 °F /  18 °C 30in /  1017.0hPa Sur 2mph /  3.2km/h 2.3mph /  3.7km/h 76% 0in /  0.0mm
12:39 72.7 °F /  22.6 °C 64.4 °F /  18 °C 30in /  1017.0hPa Sur 1.7mph /  2.8km/h 3.5mph /  5.6km/h 75.2% 0in /  0.0mm
12:44 72.9 °F /  22.7 °C 64.4 °F /  18 °C 30in /  1017.0hPa Sur 1.4mph /  2.3km/h 4.3mph /  6.9km/h 75% 0in /  0.0mm
12:49 72.9 °F /  22.7 °C 64.2 °F /  17.9 °C 30in /  1017.0hPa SSO 1.6mph /  2.5km/h 4.6mph /  7.4km/h 74.1% 0in /  0.0mm
12:54 73 °F /  22.8 °C 64.2 °F /  17.9 °C 30in /  1017.0hPa ONO 1.8mph /  2.9km/h 3.5mph /  5.6km/h 74% 0in /  0.0mm
12:59 73 °F /  22.8 °C 64.4 °F /  18 °C 30in /  1017.0hPa Oeste 1.8mph /  2.9km/h 3.6mph /  5.8km/h 74% 0in /  0.0mm
13:04 73.2 °F /  22.9 °C 64.4 °F /  18 °C 30in /  1017.0hPa NO 1.8mph /  2.9km/h 4.6mph /  7.4km/h 73.9% 0in /  0.0mm
13:09 73.6 °F /  23.1 °C 64.4 °F /  18 °C 30in /  1017.0hPa North 1.9mph /  3km/h 3.6mph /  5.8km/h 73.2% 0in /  0.0mm
13:14 73.6 °F /  23.1 °C 64.4 °F /  18 °C 30in /  1016.9hPa ENE 2mph /  3.2km/h 5.2mph /  8.4km/h 73% 0in /  0.0mm
13:19 73.8 °F /  23.2 °C 64.4 °F /  18 °C 30in /  1016.9hPa ENE 2.2mph /  3.5km/h 4.6mph /  7.4km/h 73% 0in /  0.0mm
13:24 73.8 °F /  23.2 °C 64.2 °F /  17.9 °C 30in /  1016.9hPa NE 2.4mph /  3.9km/h 6.2mph /  10km/h 72.2% 0in /  0.0mm
13:29 73.9 °F /  23.3 °C 64.2 °F /  17.9 °C 30in /  1016.7hPa NE 2.6mph /  4.2km/h 5.2mph /  8.4km/h 72% 0in /  0.0mm
13:34 73.9 °F /  23.3 °C 63.9 °F /  17.7 °C 30in /  1016.7hPa NNE 2.9mph /  4.7km/h 4.6mph /  7.4km/h 71% 0in /  0.0mm
13:39 74.3 °F /  23.5 °C 64 °F /  17.8 °C 30in /  1016.7hPa North 2.7mph /  4.3km/h 5.2mph /  8.4km/h 70.4% 0in /  0.0mm
13:44 74.7 °F /  23.7 °C 64.2 °F /  17.9 °C 30in /  1016.5hPa NNE 2.4mph /  3.9km/h 4.6mph /  7.4km/h 70% 0in /  0.0mm
13:49 74.8 °F /  23.8 °C 64 °F /  17.8 °C 30in /  1016.5hPa NE 2.4mph /  3.9km/h 5.2mph /  8.4km/h 69.1% 0in /  0.0mm
13:54 75.2 °F /  24 °C 63.7 °F /  17.6 °C 30in /  1016.5hPa Este 2.4mph /  3.9km/h 3.6mph /  5.8km/h 67.5% 0in /  0.0mm
13:59 75.6 °F /  24.2 °C 63.7 °F /  17.6 °C 30in /  1016.4hPa NNE 2.2mph /  3.6km/h 5.9mph /  9.5km/h 66.6% 0in /  0.0mm
14:04 75.6 °F /  24.2 °C 63.5 °F /  17.5 °C 30in /  1016.4hPa NNE 2mph /  3.2km/h 5.8mph /  9.3km/h 66% 0in /  0.0mm
14:09 75.7 °F /  24.3 °C 63.5 °F /  17.5 °C 30in /  1016.4hPa ENE 2.4mph /  3.8km/h 3.5mph /  5.6km/h 65.8% 0in /  0.0mm
14:14 76.1 °F /  24.5 °C 62.8 °F /  17.1 °C 30in /  1016.2hPa NO 2.9mph /  4.7km/h 4.6mph /  7.4km/h 63.5% 0in /  0.0mm
14:19 76.5 °F /  24.7 °C 62.6 °F /  17 °C 30in /  1016.2hPa North 2.9mph /  4.7km/h 6.9mph /  11.1km/h 62.2% 0in /  0.0mm
14:24 76.6 °F /  24.8 °C 62.1 °F /  16.7 °C 30in /  1016.2hPa NNO 2.9mph /  4.7km/h 6.2mph /  10km/h 60.8% 0in /  0.0mm
14:29 77 °F /  25 °C 61.7 °F /  16.5 °C 30in /  1016.0hPa SE 3mph /  4.8km/h 7.4mph /  11.9km/h 59.2% 0in /  0.0mm
14:34 77.4 °F /  25.2 °C 62.1 °F /  16.7 °C 30in /  1016.0hPa Este 3.1mph /  5km/h 7.4mph /  11.9km/h 59.5% 0in /  0.0mm
14:39 77.4 °F /  25.2 °C 61.9 °F /  16.6 °C 30in /  1016.0hPa NO 3mph /  4.9km/h 5.8mph /  9.3km/h 59% 0in /  0.0mm
14:44 77.5 °F /  25.3 °C 61.9 °F /  16.6 °C 30in /  1015.9hPa NNE 2.9mph /  4.7km/h 9.2mph /  14.8km/h 58.6% 0in /  0.0mm
14:49 77.5 °F /  25.3 °C 61.7 °F /  16.5 °C 30in /  1015.9hPa Este 3.4mph /  5.4km/h 8.5mph /  13.7km/h 58% 0in /  0.0mm
14:54 77.5 °F /  25.3 °C 61.2 °F /  16.2 °C 30in /  1015.9hPa ESE 4mph /  6.4km/h 5.9mph /  9.5km/h 57.2% 0in /  0.0mm
14:59 77.5 °F /  25.3 °C 61 °F /  16.1 °C 30in /  1015.8hPa NE 3.5mph /  5.6km/h 6.9mph /  11.1km/h 56.7% 0in /  0.0mm
15:04 77.7 °F /  25.4 °C 60.6 °F /  15.9 °C 30in /  1015.8hPa Este 2.9mph /  4.7km/h 6.2mph /  10km/h 55.7% 0in /  0.0mm
15:09 78.1 °F /  25.6 °C 60.4 °F /  15.8 °C 30in /  1015.8hPa NNE 3.4mph /  5.4km/h 7.4mph /  11.9km/h 54.8% 0in /  0.0mm
15:14 78.3 °F /  25.7 °C 60.1 °F /  15.6 °C 30in /  1015.7hPa NE 4mph /  6.4km/h 7.4mph /  11.9km/h 53.6% 0in /  0.0mm
15:19 78.3 °F /  25.7 °C 59.5 °F /  15.3 °C 30in /  1015.7hPa NE 4.1mph /  6.6km/h 6.9mph /  11.1km/h 52.7% 0in /  0.0mm
15:24 78.4 °F /  25.8 °C 60.1 °F /  15.6 °C 30in /  1015.7hPa Este 4.3mph /  6.9km/h 8.5mph /  13.7km/h 53.4% 0in /  0.0mm
15:29 78.4 °F /  25.8 °C 60.1 °F /  15.6 °C 30in /  1015.6hPa NE 4.2mph /  6.7km/h 8.7mph /  14km/h 53.5% 0in /  0.0mm
15:34 78.4 °F /  25.8 °C 60.3 °F /  15.7 °C 30in /  1015.6hPa NE 4mph /  6.4km/h 11.5mph /  18.5km/h 53.6% 0in /  0.0mm
15:39 78.6 °F /  25.9 °C 60.3 °F /  15.7 °C 30in /  1015.6hPa ESE 4.3mph /  6.9km/h 8.1mph /  13km/h 53.3% 0in /  0.0mm
15:44 78.6 °F /  25.9 °C 60.1 °F /  15.6 °C 30in /  1015.6hPa Sur 4.7mph /  7.6km/h 8.5mph /  13.7km/h 53% 0in /  0.0mm
15:49 78.8 °F /  26 °C 60.1 °F /  15.6 °C 30in /  1015.6hPa ENE 4mph /  6.5km/h 9.7mph /  15.6km/h 52.7% 0in /  0.0mm
15:54 78.6 °F /  25.9 °C 59.2 °F /  15.1 °C 30in /  1015.6hPa SE 3.1mph /  5km/h 9.2mph /  14.8km/h 51.3% 0in /  0.0mm
15:59 78.6 °F /  25.9 °C 59.4 °F /  15.2 °C 30in /  1015.4hPa ESE 4mph /  6.5km/h 9.2mph /  14.8km/h 51.8% 0in /  0.0mm
16:04 78.6 °F /  25.9 °C 59.2 °F /  15.1 °C 30in /  1015.4hPa ESE 5.2mph /  8.4km/h 8.1mph /  13km/h 51.5% 0in /  0.0mm
16:09 78.6 °F /  25.9 °C 58.6 °F /  14.8 °C 30in /  1015.4hPa SE 4.5mph /  7.3km/h 4.7mph /  7.6km/h 50.5% 0in /  0.0mm
16:14 78.6 °F /  25.9 °C 58.5 °F /  14.7 °C 30in /  1015.4hPa ESE 3.6mph /  5.8km/h 4.6mph /  7.4km/h 50% 0in /  0.0mm
16:19 79.2 °F /  26.2 °C 59.2 °F /  15.1 °C 30in /  1015.4hPa Este 2.9mph /  4.7km/h 3.6mph /  5.8km/h 50.7% 0in /  0.0mm
16:24 79.3 °F /  26.3 °C 59.5 °F /  15.3 °C 30in /  1015.4hPa SSO 2mph /  3.2km/h 12.7mph /  20.4km/h 50.9% 0in /  0.0mm
16:29 79.5 °F /  26.4 °C 59.5 °F /  15.3 °C 30in /  1015.3hPa SSE 3.5mph /  5.6km/h 11.5mph /  18.5km/h 50.6% 0in /  0.0mm
16:34 79.3 °F /  26.3 °C 59.5 °F /  15.3 °C 30in /  1015.3hPa Este 5.4mph /  8.7km/h 8.5mph /  13.7km/h 51% 0in /  0.0mm
16:39 79.5 °F /  26.4 °C 59.7 °F /  15.4 °C 30in /  1015.4hPa SE 5.1mph /  8.2km/h 5.9mph /  9.5km/h 50.8% 0in /  0.0mm
16:44 79.7 °F /  26.5 °C 59.4 °F /  15.2 °C 30in /  1015.4hPa Este 4.7mph /  7.6km/h 5.8mph /  9.3km/h 50% 0in /  0.0mm
16:49 79.7 °F /  26.5 °C 59.4 °F /  15.2 °C 30in /  1015.4hPa Este 4.2mph /  6.8km/h 5.2mph /  8.4km/h 50% 0in /  0.0mm
16:54 80.1 °F /  26.7 °C 60.1 °F /  15.6 °C 30in /  1015.5hPa ENE 3.6mph /  5.8km/h 6.2mph /  10km/h 50.8% 0in /  0.0mm
16:59 79.9 °F /  26.6 °C 60.1 °F /  15.6 °C 30in /  1015.5hPa NNE 3.4mph /  5.4km/h 6.2mph /  10km/h 51% 0in /  0.0mm
17:04 79.7 °F /  26.5 °C 60.1 °F /  15.6 °C 30in /  1015.5hPa NE 3.1mph /  5km/h 11.8mph /  19km/h 51% 0in /  0.0mm
17:09 79.5 °F /  26.4 °C 59 °F /  15 °C 30in /  1015.5hPa SE 4.3mph /  6.9km/h 8.1mph /  13km/h 49.3% 0in /  0.0mm
17:14 79.5 °F /  26.4 °C 59 °F /  15 °C 30in /  1015.4hPa ESE 5.9mph /  9.5km/h 5.8mph /  9.3km/h 49.7% 0in /  0.0mm
17:19 79.5 °F /  26.4 °C 59.2 °F /  15.1 °C 30in /  1015.4hPa SE 4.7mph /  7.6km/h 6.2mph /  10km/h 49.9% 0in /  0.0mm
17:24 79.3 °F /  26.3 °C 59.2 °F /  15.1 °C 30in /  1015.5hPa ESE 3.1mph /  5km/h 11.5mph /  18.5km/h 50.2% 0in /  0.0mm
17:29 79.2 °F /  26.2 °C 59.4 °F /  15.2 °C 30in /  1015.5hPa ESE 4.3mph /  7km/h 13mph /  20.9km/h 51% 0in /  0.0mm
17:34 78.8 °F /  26 °C 58.8 °F /  14.9 °C 30in /  1015.5hPa ESE 6.2mph /  10km/h 11.2mph /  18km/h 50.5% 0in /  0.0mm
17:39 78.8 °F /  26 °C 58.6 °F /  14.8 °C 30in /  1015.6hPa ESE 6.5mph /  10.4km/h 11.5mph /  18.5km/h 50% 0in /  0.0mm
17:44 78.6 °F /  25.9 °C 58.5 °F /  14.7 °C 30in /  1015.6hPa Este 6.9mph /  11.1km/h 10.4mph /  16.7km/h 50% 0in /  0.0mm
17:49 78.6 °F /  25.9 °C 58.5 °F /  14.7 °C 30in /  1015.6hPa Este 6.3mph /  10.1km/h 10.4mph /  16.7km/h 50% 0in /  0.0mm
17:54 78.4 °F /  25.8 °C 58.1 °F /  14.5 °C 30in /  1015.8hPa ESE 5.4mph /  8.7km/h 12.7mph /  20.4km/h 49.9% 0in /  0.0mm
17:59 78.1 °F /  25.6 °C 58.3 °F /  14.6 °C 30in /  1015.8hPa ESE 6.3mph /  10.2km/h 13mph /  20.9km/h 50.8% 0in /  0.0mm
18:04 77.7 °F /  25.4 °C 58.6 °F /  14.8 °C 30in /  1015.8hPa ESE 7.6mph /  12.2km/h 10.4mph /  16.7km/h 51.8% 0in /  0.0mm
18:09 77.5 °F /  25.3 °C 59 °F /  15 °C 30in /  1015.8hPa ESE 7.1mph /  11.4km/h 12.3mph /  19.8km/h 52.7% 0in /  0.0mm
18:14 77.4 °F /  25.2 °C 59.4 °F /  15.2 °C 30in /  1015.8hPa ESE 6.4mph /  10.3km/h 12.7mph /  20.4km/h 53.9% 0in /  0.0mm
18:19 77.4 °F /  25.2 °C 59.7 °F /  15.4 °C 30in /  1015.8hPa Este 6.9mph /  11.1km/h 9.2mph /  14.8km/h 54.7% 0in /  0.0mm
18:24 77.2 °F /  25.1 °C 59.7 °F /  15.4 °C 30in /  1016.0hPa ENE 7.6mph /  12.2km/h 8.5mph /  13.7km/h 55.1% 0in /  0.0mm
18:29 76.8 °F /  24.9 °C 59.9 °F /  15.5 °C 30in /  1016.0hPa ENE 6.3mph /  10.2km/h 8.1mph /  13km/h 56% 0in /  0.0mm
18:34 76.6 °F /  24.8 °C 59.7 °F /  15.4 °C 30in /  1016.0hPa Este 4.7mph /  7.6km/h 10.4mph /  16.7km/h 56% 0in /  0.0mm
18:39 76.3 °F /  24.6 °C 59.5 °F /  15.3 °C 30in /  1016.3hPa Este 4.7mph /  7.6km/h 10.4mph /  16.7km/h 56% 0in /  0.0mm
18:44 75.9 °F /  24.4 °C 59.2 °F /  15.1 °C 30in /  1016.3hPa ENE 4.7mph /  7.6km/h 10.7mph /  17.2km/h 55.9% 0in /  0.0mm
18:49 75.7 °F /  24.3 °C 58.8 °F /  14.9 °C 30in /  1016.3hPa ENE 5mph /  8km/h 10.7mph /  17.2km/h 55.8% 0in /  0.0mm
18:54 75.4 °F /  24.1 °C 59.2 °F /  15.1 °C 30in /  1016.5hPa ENE 5.4mph /  8.7km/h 8.5mph /  13.7km/h 57.1% 0in /  0.0mm
18:59 74.8 °F /  23.8 °C 59.7 °F /  15.4 °C 30in /  1016.5hPa NE 5.3mph /  8.5km/h 10.4mph /  16.7km/h 59.2% 0in /  0.0mm
19:04 74.5 °F /  23.6 °C 60.1 °F /  15.6 °C 30in /  1016.5hPa ENE 5.2mph /  8.4km/h 9.2mph /  14.8km/h 60.7% 0in /  0.0mm
19:09 74.1 °F /  23.4 °C 60.3 °F /  15.7 °C 30in /  1016.7hPa ENE 5mph /  8km/h 8.5mph /  13.7km/h 61.9% 0in /  0.0mm
19:14 73.8 °F /  23.2 °C 60.1 °F /  15.6 °C 30in /  1016.7hPa ENE 4.7mph /  7.6km/h 9.2mph /  14.8km/h 62.3% 0in /  0.0mm
19:19 73.6 °F /  23.1 °C 60.1 °F /  15.6 °C 30in /  1016.7hPa NE 4.7mph /  7.6km/h 9.2mph /  14.8km/h 63% 0in /  0.0mm
19:24 73.2 °F /  22.9 °C 59.9 °F /  15.5 °C 30in /  1016.9hPa NE 4.7mph /  7.6km/h 9.2mph /  14.8km/h 62.9% 0in /  0.0mm
19:29 72.9 °F /  22.7 °C 59.5 °F /  15.3 °C 30in /  1016.9hPa NE 5.3mph /  8.6km/h 11.8mph /  19km/h 63% 0in /  0.0mm
19:34 72.7 °F /  22.6 °C 59.4 °F /  15.2 °C 30in /  1016.9hPa NE 6.2mph /  10km/h 10mph /  16.1km/h 63% 0in /  0.0mm
19:39 72.3 °F /  22.4 °C 59.2 °F /  15.1 °C 30in /  1017.2hPa NE 6.2mph /  10km/h 10.4mph /  16.7km/h 63.5% 0in /  0.0mm
19:44 72.1 °F /  22.3 °C 59.2 °F /  15.1 °C 30in /  1017.2hPa NE 6.2mph /  10km/h 9.2mph /  14.8km/h 64% 0in /  0.0mm
19:49 72 °F /  22.2 °C 59.2 °F /  15.1 °C 30in /  1017.2hPa NE 5.8mph /  9.4km/h 8.7mph /  14km/h 64.3% 0in /  0.0mm
19:54 71.6 °F /  22 °C 59.4 °F /  15.2 °C 30in /  1017.4hPa NE 5.4mph /  8.7km/h 11.8mph /  19km/h 65.1% 0in /  0.0mm
19:59 71.4 °F /  21.9 °C 59.7 °F /  15.4 °C 30in /  1017.4hPa NE 5.8mph /  9.3km/h 12.7mph /  20.4km/h 66.7% 0in /  0.0mm
20:04 71.1 °F /  21.7 °C 60.3 °F /  15.7 °C 30in /  1017.4hPa NE 6.2mph /  10km/h 11.8mph /  19km/h 68.5% 0in /  0.0mm
20:09 71.1 °F /  21.7 °C 60.8 °F /  16 °C 30.1in /  1017.6hPa NE 6.7mph /  10.8km/h 12.7mph /  20.4km/h 70.1% 0in /  0.0mm
20:14 70.9 °F /  21.6 °C 61.2 °F /  16.2 °C 30.1in /  1017.6hPa NE 7.4mph /  11.9km/h 12.7mph /  20.4km/h 71.3% 0in /  0.0mm
20:19 70.5 °F /  21.4 °C 61.2 °F /  16.2 °C 30.1in /  1017.6hPa NE 7.4mph /  11.9km/h 10.2mph /  16.4km/h 72% 0in /  0.0mm
20:24 70.5 °F /  21.4 °C 61.3 °F /  16.3 °C 30.1in /  1017.9hPa NE 7.4mph /  11.9km/h 12.7mph /  20.4km/h 72.9% 0in /  0.0mm
20:29 70.3 °F /  21.3 °C 61.3 °F /  16.3 °C 30.1in /  1017.9hPa NE 7mph /  11.2km/h 10.7mph /  17.2km/h 73% 0in /  0.0mm
20:34 70.3 °F /  21.3 °C 61.5 °F /  16.4 °C 30.1in /  1017.9hPa NE 6.4mph /  10.3km/h 12.7mph /  20.4km/h 73.7% 0in /  0.0mm
20:39 70.2 °F /  21.2 °C 61.5 °F /  16.4 °C 30.1in /  1018.0hPa NE 6.4mph /  10.3km/h 9.2mph /  14.8km/h 74% 0in /  0.0mm
20:44 70 °F /  21.1 °C 61.5 °F /  16.4 °C 30.1in /  1018.0hPa NE 6.4mph /  10.3km/h 6.9mph /  11.1km/h 74.7% 0in /  0.0mm
20:49 70 °F /  21.1 °C 61.7 °F /  16.5 °C 30.1in /  1018.0hPa ENE 5.7mph /  9.2km/h 7.4mph /  11.9km/h 75% 0in /  0.0mm
20:54 69.8 °F /  21 °C 61.5 °F /  16.4 °C 30.1in /  1018.2hPa ENE 4.7mph /  7.6km/h 7.4mph /  11.9km/h 75% 0in /  0.0mm
20:59 69.8 °F /  21 °C 61.3 °F /  16.3 °C 30.1in /  1018.2hPa ENE 4.5mph /  7.3km/h 6.2mph /  10km/h 75% 0in /  0.0mm
21:04 69.6 °F /  20.9 °C 61.3 °F /  16.3 °C 30.1in /  1018.2hPa ENE 4.3mph /  6.9km/h 5.9mph /  9.5km/h 75% 0in /  0.0mm
21:09 69.6 °F /  20.9 °C 61.3 °F /  16.3 °C 30.1in /  1018.3hPa NE 4mph /  6.5km/h 6.2mph /  10km/h 75% 0in /  0.0mm
21:14 69.6 °F /  20.9 °C 61.5 °F /  16.4 °C 30.1in /  1018.3hPa NE 3.6mph /  5.8km/h 6.9mph /  11.1km/h 75.5% 0in /  0.0mm
21:19 69.4 °F /  20.8 °C 61.5 °F /  16.4 °C 30.1in /  1018.3hPa NE 3.8mph /  6.1km/h 5.9mph /  9.5km/h 76% 0in /  0.0mm
21:24 69.3 °F /  20.7 °C 61.5 °F /  16.4 °C 30.1in /  1018.5hPa NE 4mph /  6.4km/h 6.9mph /  11.1km/h 76.4% 0in /  0.0mm
21:29 69.3 °F /  20.7 °C 61.7 °F /  16.5 °C 30.1in /  1018.5hPa NNE 3.9mph /  6.2km/h 6.2mph /  10km/h 77% 0in /  0.0mm
21:34 68.9 °F /  20.5 °C 61.7 °F /  16.5 °C 30.1in /  1018.5hPa NE 3.6mph /  5.8km/h 6.9mph /  11.1km/h 77.5% 0in /  0.0mm
21:39 68.7 °F /  20.4 °C 61.5 °F /  16.4 °C 30.1in /  1018.6hPa NE 3.8mph /  6.1km/h 5.8mph /  9.3km/h 78% 0in /  0.0mm
21:44 68.5 °F /  20.3 °C 61.7 °F /  16.5 °C 30.1in /  1018.6hPa NE 4mph /  6.4km/h 7.4mph /  11.9km/h 78.5% 0in /  0.0mm
21:49 68.4 °F /  20.2 °C 61.7 °F /  16.5 °C 30.1in /  1018.6hPa NE 4.1mph /  6.6km/h 6.9mph /  11.1km/h 79% 0in /  0.0mm
21:54 68.4 °F /  20.2 °C 61.7 °F /  16.5 °C 30.1in /  1018.8hPa NE 4.3mph /  6.9km/h 5.9mph /  9.5km/h 79.3% 0in /  0.0mm
21:59 68.2 °F /  20.1 °C 61.9 °F /  16.6 °C 30.1in /  1018.8hPa NE 4.3mph /  6.9km/h 6.9mph /  11.1km/h 80% 0in /  0.0mm
22:04 68 °F /  20 °C 61.7 °F /  16.5 °C 30.1in /  1018.8hPa NE 4.3mph /  6.9km/h 5.9mph /  9.5km/h 80% 0in /  0.0mm
22:09 68 °F /  20 °C 61.5 °F /  16.4 °C 30.1in /  1019.0hPa NE 4mph /  6.4km/h 5.9mph /  9.5km/h 80% 0in /  0.0mm
22:14 67.8 °F /  19.9 °C 61.9 °F /  16.6 °C 30.1in /  1019.0hPa NE 3.6mph /  5.8km/h 5.2mph /  8.4km/h 80.9% 0in /  0.0mm
22:19 67.8 °F /  19.9 °C 61.9 °F /  16.6 °C 30.1in /  1019.0hPa NE 3.4mph /  5.5km/h 4.7mph /  7.6km/h 81% 0in /  0.0mm
22:24 67.8 °F /  19.9 °C 61.9 °F /  16.6 °C 30.1in /  1019.2hPa ENE 3.1mph /  5km/h 5.8mph /  9.3km/h 81% 0in /  0.0mm
22:29 67.6 °F /  19.8 °C 61.7 °F /  16.5 °C 30.1in /  1019.2hPa ENE 2.8mph /  4.5km/h 2.4mph /  3.9km/h 81% 0in /  0.0mm
22:34 67.6 °F /  19.8 °C 61.5 °F /  16.4 °C 30.1in /  1019.2hPa NE 2.4mph /  3.9km/h 2.4mph /  3.9km/h 81% 0in /  0.0mm
22:39 67.6 °F /  19.8 °C 61.9 °F /  16.6 °C 30.1in /  1019.2hPa NE 2mph /  3.2km/h 3.6mph /  5.8km/h 82% 0in /  0.0mm
22:44 67.6 °F /  19.8 °C 61.9 °F /  16.6 °C 30.1in /  1019.1hPa NE 1.4mph /  2.3km/h 4.6mph /  7.4km/h 82% 0in /  0.0mm
22:49 67.8 °F /  19.9 °C 62.1 °F /  16.7 °C 30.1in /  1019.1hPa NNE 2mph /  3.2km/h 4.6mph /  7.4km/h 82% 0in /  0.0mm
22:54 67.6 °F /  19.8 °C 61.7 °F /  16.5 °C 30.1in /  1019.6hPa NNE 2.9mph /  4.7km/h 5.9mph /  9.5km/h 81.2% 0in /  0.0mm
22:59 67.6 °F /  19.8 °C 61.9 °F /  16.6 °C 30.1in /  1019.6hPa NNE 3.2mph /  5.2km/h 5.8mph /  9.3km/h 82% 0in /  0.0mm
23:04 67.5 °F /  19.7 °C 61.9 °F /  16.6 °C 30.1in /  1019.6hPa NE 3.6mph /  5.8km/h 5.2mph /  8.4km/h 82% 0in /  0.0mm
23:09 67.5 °F /  19.7 °C 61.9 °F /  16.6 °C 30.1in /  1019.6hPa NE 3.6mph /  5.8km/h 5.2mph /  8.4km/h 82.4% 0in /  0.0mm
23:14 67.3 °F /  19.6 °C 61.9 °F /  16.6 °C 30.1in /  1019.5hPa NNE 3.6mph /  5.8km/h 5.9mph /  9.5km/h 83% 0in /  0.0mm
23:19 67.1 °F /  19.5 °C 61.9 °F /  16.6 °C 30.1in /  1019.5hPa NNE 3.6mph /  5.8km/h 5.8mph /  9.3km/h 83% 0in /  0.0mm
23:24 66.9 °F /  19.4 °C 61.5 °F /  16.4 °C 30.1in /  1019.7hPa NNE 3.6mph /  5.8km/h 4.7mph /  7.6km/h 83% 0in /  0.0mm
23:29 66.7 °F /  19.3 °C 61.7 °F /  16.5 °C 30.1in /  1019.7hPa NNE 3.3mph /  5.3km/h 4.6mph /  7.4km/h 83.7% 0in /  0.0mm
23:34 66.7 °F /  19.3 °C 61.7 °F /  16.5 °C 30.1in /  1019.7hPa NNE 2.9mph /  4.7km/h 4.6mph /  7.4km/h 84% 0in /  0.0mm
23:39 66.6 °F /  19.2 °C 61.5 °F /  16.4 °C 30.1in /  1019.7hPa NNE 2.9mph /  4.7km/h 5.9mph /  9.5km/h 84% 0in /  0.0mm
23:44 66.4 °F /  19.1 °C 61.7 °F /  16.5 °C 30.1in /  1019.7hPa NNE 2.9mph /  4.7km/h 6.2mph /  10km/h 84.9% 0in /  0.0mm
23:49 66.2 °F /  19 °C 61.5 °F /  16.4 °C 30.1in /  1019.7hPa NNE 3.2mph /  5.1km/h 5.2mph /  8.4km/h 85% 0in /  0.0mm
23:54 66 °F /  18.9 °C 61.3 °F /  16.3 °C 30.1in /  1019.9hPa NNE 3.6mph /  5.8km/h 5.8mph /  9.3km/h 85% 0in /  0.0mm
23:59 65.8 °F /  18.8 °C 61.5 °F /  16.4 °C 30.1in /  1019.9hPa NNE 3.8mph /  6.1km/h 6.9mph /  11.1km/h 85.9% 0in /  0.0mm
Murcia-Puente Tocinos, Espa?a
Compliments of Weather Underground - 3 mb

La estación de MeteoMurcia.com, publica sus datos en los siguientes proyectos:

Weather Underground PWS IMURCIAP2 Meteoclimatic www.awekas.at

W3Counter
Web Analytics